Airfield :
LOGIN :

Register | Disclaimer

   EN    FR    IT 

 










Legend :    VFR   Marginal VFR   IFR   Intensive IFR   Very Intensive IFR
Visi :
Ceiling :
>= 8 km
>= 3000ft
5 to 8 km
1000 to 3000 ft
1500m to 5 km
500 to 1000 ft
800 to 1500m
200 to 500 ft
< 800m
< 200 ft
Symbols :   Thunderstorms  Fog  Heavy snow  Heavy precipitations  Wind > 20 kt
SIGMETs :     Misc.  Thunderstorms  Icing  Turbulence  Mountain Waves  Volcanic Ashes







- Airport Elevation : 348 ft
- IATA code : STN
- Download approach charts


EGSS - London Stansted

CURRENT METAR :
  • 270820Z AUTO 10011KT 9999 BKN038 16/13 Q1008

EXPIRED METARs :
  • 270750Z AUTO 10009KT 9999 OVC042 16/13 Q1009
  • 270720Z AUTO 09011KT 030V130 9999 OVC045 16/12 Q1009
  • 270650Z AUTO 10009KT 050V130 9999 FEW046 16/12 Q1009
  • 270620Z AUTO 10010KT 9999 BKN044 15/12 Q1009
  • 270550Z AUTO 10009KT 030V130 9999 BKN043 15/12 Q1010

TAF TAF EGSS
Valid from the 27 at 06:00 until the 28 at 12:00 UTC


270455Z 2706/2812 09010KT 9999 SCT045
TEMPO 2706/2722 7000 SHRA BKN012
PROB30
TEMPO 2710/2722 4000 +SHRA
BECMG 2722/2801 02006KT BKN010
TEMPO 2722/2808 7000 RA BKN004
PROB30
TEMPO 2800/2806 4000 +RA
PROB30
TEMPO 2808/2812 7000 RA
ATIS : +44 1279 669 325
No reported NOTAMs for that airfield.



MET'MAP, your aeronautical weather chart ! - Copyright ORBIFLY December 2007 - Disclaimer

ORBIFLY MET'MAP TEAM :

Programming & Development : Alexandra Zaïnal
Concept & Development : Baudouin d'Aumeries
Co-Development & Prog : Marc-Olivier Méhu
Technical & hardware support : Manuel Goepfert

Contact : metmap@orbifly.com




SOURCES & CREDITS :

   NOAA